createdAt,value
2022-10-17T00:04:54.178Z,3.25
2022-10-17T00:09:55.553Z,3.78
2022-10-17T00:14:56.806Z,3.13
2022-10-17T00:19:59.865Z,3.03
2022-10-17T00:25:01.119Z,2.97
2022-10-17T00:30:04.058Z,2.80
2022-10-17T00:35:06.430Z,3.10
2022-10-17T00:40:08.501Z,2.80
2022-10-17T00:45:23.067Z,3.10
2022-10-17T00:50:25.046Z,3.03
2022-10-17T00:55:30.858Z,2.33
2022-10-17T01:00:32.253Z,3.35
2022-10-17T01:05:34.284Z,3.08
2022-10-17T01:11:05.925Z,2.92
2022-10-17T01:16:32.192Z,3.03
2022-10-17T01:21:58.285Z,3.10
2022-10-17T01:27:26.526Z,3.58
2022-10-17T01:32:49.627Z,3.10
2022-10-17T01:38:09.610Z,3.70
2022-10-17T01:43:36.905Z,3.15
2022-10-17T01:48:42.775Z,2.97
2022-10-17T01:53:56.978Z,3.30
2022-10-17T02:04:07.920Z,3.50
2022-10-17T02:09:24.483Z,3.50
2022-10-17T02:14:39.619Z,3.50
2022-10-17T02:20:12.805Z,3.67
2022-10-17T02:25:35.006Z,3.17
2022-10-17T02:30:58.788Z,3.40
2022-10-17T02:36:06.032Z,3.40
2022-10-17T02:41:11.226Z,3.70
2022-10-17T02:46:20.997Z,2.58
2022-10-17T02:51:52.173Z,2.97
2022-10-17T02:56:59.206Z,2.95
2022-10-17T03:02:04.554Z,4.20
2022-10-17T03:07:05.806Z,3.42
2022-10-17T03:12:08.505Z,3.10
2022-10-17T03:17:09.781Z,3.88
2022-10-17T03:22:11.056Z,3.60
2022-10-17T03:27:12.366Z,3.60
2022-10-17T03:32:13.647Z,3.60
2022-10-17T03:37:15.063Z,3.60
2022-10-17T03:42:16.317Z,3.60
2022-10-17T03:47:17.585Z,3.65
2022-10-17T03:52:19.009Z,2.85
2022-10-17T03:57:20.386Z,3.60
2022-10-17T04:02:21.873Z,3.22
2022-10-17T04:07:23.122Z,2.78
2022-10-17T04:12:24.420Z,3.38
2022-10-17T04:17:25.675Z,3.15
2022-10-17T04:22:27.597Z,4.13
2022-10-17T04:27:29.073Z,3.53
2022-10-17T04:32:30.780Z,3.40
2022-10-17T04:37:32.353Z,3.17
2022-10-17T04:42:33.644Z,3.30
2022-10-17T04:47:34.949Z,3.50
2022-10-17T04:52:37.420Z,3.63
2022-10-17T04:57:38.692Z,4.00
2022-10-17T05:02:39.994Z,4.20
2022-10-17T05:07:41.749Z,4.07
2022-10-17T05:12:43.122Z,3.97
2022-10-17T05:17:44.502Z,3.08
2022-10-17T05:22:45.964Z,3.47
2022-10-17T05:27:47.607Z,3.25
2022-10-17T05:32:53.312Z,3.45
2022-10-17T05:37:54.562Z,3.22
2022-10-17T05:42:55.952Z,4.20
2022-10-17T05:47:57.270Z,4.40
2022-10-17T05:52:58.517Z,3.80
2022-10-17T05:58:01.076Z,3.90
2022-10-17T06:03:02.389Z,3.33
2022-10-17T06:08:03.872Z,3.40
2022-10-17T06:13:05.186Z,2.95
2022-10-17T06:18:06.435Z,3.08
2022-10-17T06:23:07.713Z,4.13
2022-10-17T06:28:10.418Z,4.03
2022-10-17T06:33:11.665Z,4.15
2022-10-17T06:38:12.929Z,3.50
2022-10-17T06:43:14.603Z,3.42
2022-10-17T06:48:15.872Z,3.78
2022-10-17T06:53:17.234Z,5.55
2022-10-17T06:58:18.478Z,4.65
2022-10-17T07:03:19.737Z,4.28
2022-10-17T07:08:21.661Z,4.40
2022-10-17T07:13:23.617Z,4.88
2022-10-17T07:18:24.853Z,5.43
2022-10-17T07:23:26.239Z,4.25
2022-10-17T07:28:28.762Z,4.53
2022-10-17T07:33:30.081Z,5.13
2022-10-17T07:38:31.453Z,4.68
2022-10-17T07:43:33.870Z,4.72
2022-10-17T07:48:35.391Z,4.38
2022-10-17T07:53:42.653Z,5.22
2022-10-17T07:58:45.228Z,4.43
2022-10-17T08:03:48.454Z,4.60
2022-10-17T08:08:49.766Z,4.97
2022-10-17T08:13:51.029Z,4.28
2022-10-17T08:18:52.300Z,4.50
2022-10-17T08:23:53.777Z,4.80
2022-10-17T08:28:55.220Z,5.03
2022-10-17T08:33:56.645Z,4.57
2022-10-17T08:38:57.875Z,3.90
2022-10-17T08:44:12.235Z,3.58
2022-10-17T08:49:28.277Z,3.70
2022-10-17T08:54:47.640Z,3.40
2022-10-17T08:59:54.134Z,3.00
2022-10-17T09:05:24.036Z,3.22
2022-10-17T09:10:43.449Z,3.42
2022-10-17T09:15:57.389Z,3.67
2022-10-17T09:21:12.905Z,3.38
2022-10-17T09:26:14.936Z,3.28
2022-10-17T09:31:34.611Z,3.25
2022-10-17T09:36:39.388Z,3.03
2022-10-17T09:41:52.668Z,2.80
2022-10-17T09:52:29.152Z,2.78
2022-10-17T09:57:52.382Z,2.75
2022-10-17T10:03:12.540Z,2.80
2022-10-17T10:08:19.233Z,2.50
2022-10-17T10:13:20.587Z,4.63
2022-10-17T10:18:25.158Z,3.90
2022-10-17T10:23:26.505Z,2.08
2022-10-17T10:28:36.213Z,2.40
2022-10-17T10:33:48.087Z,2.42
2022-10-17T10:38:55.008Z,2.15
2022-10-17T10:43:56.655Z,1.42
2022-10-17T10:49:00.402Z,1.80
2022-10-17T10:54:11.506Z,1.90
2022-10-17T10:59:25.940Z,1.63
2022-10-17T11:04:36.131Z,1.80
2022-10-17T11:15:06.715Z,1.70
2022-10-17T11:20:19.690Z,1.75
2022-10-17T11:25:31.814Z,2.13
2022-10-17T11:35:49.769Z,1.35
2022-10-17T11:40:55.878Z,1.40
2022-10-17T11:46:04.387Z,1.67
2022-10-17T12:01:54.817Z,1.20
2022-10-17T12:12:28.527Z,1.20
2022-10-17T12:17:38.887Z,1.23
2022-10-17T12:22:47.381Z,1.30
2022-10-17T12:27:50.614Z,1.42
2022-10-17T12:33:30.492Z,1.25
2022-10-17T12:38:31.866Z,0.85
2022-10-17T12:43:39.668Z,1.10
2022-10-17T12:48:44.198Z,1.30
2022-10-17T12:54:15.010Z,1.20
2022-10-17T12:59:26.878Z,0.80
2022-10-17T13:04:29.700Z,1.10
2022-10-17T13:09:38.495Z,1.20
2022-10-17T13:14:42.680Z,1.92
2022-10-17T13:19:45.722Z,1.52
2022-10-17T13:24:48.362Z,1.50
2022-10-17T13:29:49.907Z,0.77
2022-10-17T13:35:09.704Z,1.30
2022-10-17T13:45:48.013Z,1.20
2022-10-17T13:50:53.393Z,1.48
2022-10-17T13:56:15.702Z,0.85
2022-10-17T14:01:21.332Z,1.27
2022-10-17T14:06:27.936Z,1.30
2022-10-17T14:11:38.680Z,1.48
2022-10-17T14:16:42.216Z,1.10
2022-10-17T14:21:49.039Z,1.50
2022-10-17T14:26:55.817Z,1.02
2022-10-17T14:32:10.731Z,1.70
2022-10-17T14:37:24.166Z,1.27
2022-10-17T14:42:26.170Z,1.48
2022-10-17T14:47:42.601Z,1.45
2022-10-17T14:53:02.071Z,1.80
2022-10-17T14:58:17.639Z,1.52
2022-10-17T15:03:19.333Z,1.50
2022-10-17T15:08:23.735Z,1.90
2022-10-17T15:13:28.042Z,2.00
2022-10-17T15:18:32.347Z,2.17
2022-10-17T15:23:33.668Z,2.35
2022-10-17T15:28:34.931Z,1.98
2022-10-17T15:33:36.213Z,2.78
2022-10-17T15:38:37.513Z,2.00
2022-10-17T15:43:38.779Z,2.05
2022-10-17T15:48:43.356Z,2.00
2022-10-17T15:53:45.038Z,2.33
2022-10-17T15:58:46.814Z,2.58
2022-10-17T16:03:50.147Z,2.42
2022-10-17T16:08:52.173Z,2.38
2022-10-17T16:13:55.741Z,2.33
2022-10-17T16:18:57.262Z,2.65
2022-10-17T16:23:59.498Z,3.88
2022-10-17T16:29:02.996Z,3.03
2022-10-17T16:34:06.356Z,3.00
2022-10-17T16:39:07.847Z,2.92
2022-10-17T16:44:14.022Z,3.72
2022-10-17T16:49:18.024Z,3.33
2022-10-17T16:54:19.301Z,3.08
2022-10-17T16:59:20.760Z,3.20
2022-10-17T17:04:22.097Z,3.33
2022-10-17T17:09:23.491Z,3.58
2022-10-17T17:14:24.946Z,4.22
2022-10-17T17:19:26.852Z,5.30
2022-10-17T17:24:28.554Z,4.70
2022-10-17T17:29:29.922Z,5.05
2022-10-17T17:34:35.666Z,5.75
2022-10-17T17:39:36.917Z,4.93
2022-10-17T17:44:38.254Z,6.45
2022-10-17T17:49:39.548Z,8.10
2022-10-17T17:54:41.156Z,6.97
2022-10-17T17:59:42.522Z,7.53
2022-10-17T18:04:43.767Z,7.05
2022-10-17T18:09:45.022Z,8.07
2022-10-17T18:14:47.725Z,8.68
2022-10-17T18:19:49.063Z,8.77
2022-10-17T18:24:50.342Z,8.15
2022-10-17T18:29:51.574Z,8.15
2022-10-17T18:34:52.833Z,6.85
2022-10-17T18:39:55.723Z,7.88
2022-10-17T18:44:57.021Z,8.00
2022-10-17T18:49:58.262Z,7.60
2022-10-17T18:54:59.526Z,6.70
2022-10-17T19:00:00.772Z,7.10
2022-10-17T19:05:02.280Z,7.40
2022-10-17T19:10:03.858Z,7.90
2022-10-17T19:15:05.418Z,7.10
2022-10-17T19:20:07.250Z,7.53
2022-10-17T19:25:09.070Z,7.43
2022-10-17T19:30:12.453Z,6.80
2022-10-17T19:40:15.320Z,6.75
2022-10-17T19:45:16.694Z,6.68
2022-10-17T19:50:17.958Z,7.57
2022-10-17T19:55:19.282Z,7.93
2022-10-17T20:00:20.536Z,8.80
2022-10-17T20:05:25.904Z,7.65
2022-10-17T20:10:28.632Z,7.50
2022-10-17T20:15:30.069Z,6.95
2022-10-17T20:20:33.498Z,7.05
2022-10-17T20:30:45.420Z,6.97
2022-10-17T20:35:46.663Z,6.38
2022-10-17T20:40:47.964Z,6.75
2022-10-17T20:45:51.238Z,6.05
2022-10-17T20:50:54.138Z,6.68
2022-10-17T20:56:08.128Z,6.50
2022-10-17T21:01:10.682Z,5.70
2022-10-17T21:06:12.318Z,6.05
2022-10-17T21:11:15.174Z,6.00
2022-10-17T21:16:18.780Z,6.07
2022-10-17T21:21:29.002Z,6.35
2022-10-17T21:26:33.796Z,5.97
2022-10-17T21:31:39.839Z,6.57
2022-10-17T21:36:41.440Z,6.57
2022-10-17T21:41:44.148Z,6.13
2022-10-17T21:46:46.585Z,5.63
2022-10-17T21:51:48.757Z,5.43
2022-10-17T21:56:50.982Z,5.90
2022-10-17T22:01:52.353Z,5.65
2022-10-17T22:06:53.644Z,5.47
2022-10-17T22:11:56.460Z,5.97
2022-10-17T22:16:57.697Z,6.00
2022-10-17T22:21:58.990Z,7.20
2022-10-17T22:27:00.420Z,6.40
2022-10-17T22:32:01.977Z,6.28
2022-10-17T22:37:03.221Z,6.18
2022-10-17T22:42:04.474Z,5.88
2022-10-17T22:47:05.786Z,5.88
2022-10-17T22:52:07.135Z,6.82
2022-10-17T22:57:08.369Z,5.95
2022-10-17T23:02:09.619Z,5.95
2022-10-17T23:07:12.389Z,6.28
2022-10-17T23:12:13.617Z,6.20
2022-10-17T23:17:15.310Z,5.97
2022-10-17T23:22:16.821Z,6.30
2022-10-17T23:27:18.140Z,5.70
2022-10-17T23:32:20.870Z,5.38
2022-10-17T23:37:22.117Z,6.30
2022-10-17T23:42:23.543Z,4.97
2022-10-17T23:47:24.964Z,5.85
2022-10-17T23:52:26.254Z,6.40
2022-10-17T23:57:27.616Z,6.03
